createdAt,value
2018-09-18T00:02:21.170Z,6.13
2018-09-18T00:04:54.672Z,6.40
2018-09-18T00:07:34.479Z,6.40
2018-09-18T00:10:08.088Z,6.40
2018-09-18T00:12:41.688Z,5.83
2018-09-18T00:15:15.177Z,6.33
2018-09-18T00:17:48.715Z,6.63
2018-09-18T00:20:22.277Z,6.63
2018-09-18T00:22:55.892Z,6.90
2018-09-18T00:25:29.390Z,6.70
2018-09-18T00:28:02.999Z,6.60
2018-09-18T00:30:36.546Z,7.10
2018-09-18T00:33:10.069Z,7.37
2018-09-18T00:35:43.514Z,7.30
2018-09-18T00:38:22.206Z,6.80
2018-09-18T00:40:55.629Z,7.13
2018-09-18T00:43:29.075Z,7.40
2018-09-18T00:46:02.702Z,7.43
2018-09-18T00:48:36.339Z,7.37
2018-09-18T00:51:10.881Z,7.33
2018-09-18T00:53:44.520Z,8.00
2018-09-18T00:56:18.104Z,6.97
2018-09-18T00:58:51.695Z,6.80
2018-09-18T01:01:25.278Z,7.33
2018-09-18T01:03:58.734Z,7.13
2018-09-18T01:06:32.369Z,7.30
2018-09-18T01:09:07.472Z,7.20
2018-09-18T01:11:41.924Z,7.57
2018-09-18T01:14:15.578Z,6.53
2018-09-18T01:16:49.159Z,7.23
2018-09-18T01:19:22.839Z,6.83
2018-09-18T01:21:56.368Z,8.40
2018-09-18T01:24:36.407Z,8.23
2018-09-18T01:27:13.064Z,7.20
2018-09-18T01:29:46.606Z,7.23
2018-09-18T01:32:20.040Z,7.63
2018-09-18T01:34:53.824Z,7.57
2018-09-18T01:37:27.251Z,6.77
2018-09-18T01:40:00.908Z,7.70
2018-09-18T01:42:34.512Z,7.27
2018-09-18T01:45:09.150Z,7.10
2018-09-18T01:47:42.725Z,7.30
2018-09-18T01:50:16.143Z,7.27
2018-09-18T01:52:49.842Z,7.53
2018-09-18T01:55:23.499Z,6.97
2018-09-18T01:57:56.990Z,7.43
2018-09-18T02:00:30.691Z,6.87
2018-09-18T02:03:10.591Z,7.27
2018-09-18T02:05:44.037Z,7.30
2018-09-18T02:08:17.630Z,6.73
2018-09-18T02:10:51.223Z,6.70
2018-09-18T02:13:24.818Z,7.50
2018-09-18T02:15:58.396Z,7.17
2018-09-18T02:18:32.007Z,7.13
2018-09-18T02:21:10.854Z,7.10
2018-09-18T02:23:44.428Z,7.07
2018-09-18T02:26:18.832Z,6.73
2018-09-18T02:28:53.459Z,6.83
2018-09-18T02:31:27.049Z,7.10
2018-09-18T02:34:01.461Z,6.63
2018-09-18T02:36:35.062Z,6.23
2018-09-18T02:39:10.190Z,6.63
2018-09-18T02:41:50.097Z,7.13
2018-09-18T02:44:23.662Z,7.47
2018-09-18T02:46:58.131Z,7.10
2018-09-18T02:49:31.712Z,7.30
2018-09-18T02:52:05.554Z,7.80
2018-09-18T02:54:42.203Z,6.63
2018-09-18T02:57:15.777Z,7.53
2018-09-18T02:59:49.210Z,6.77
2018-09-18T03:02:22.832Z,6.47
2018-09-18T03:04:56.387Z,7.13
2018-09-18T03:07:29.962Z,6.80
2018-09-18T03:10:03.652Z,6.93
2018-09-18T03:12:37.912Z,6.80
2018-09-18T03:15:11.411Z,6.50
2018-09-18T03:17:45.116Z,7.07
2018-09-18T03:20:22.812Z,6.40
2018-09-18T03:22:56.443Z,6.33
2018-09-18T03:25:31.200Z,6.20
2018-09-18T03:28:04.812Z,7.00
2018-09-18T03:30:38.371Z,7.67
2018-09-18T03:33:12.029Z,6.97
2018-09-18T03:35:45.716Z,6.97
2018-09-18T03:38:19.199Z,7.33
2018-09-18T03:40:52.819Z,7.47
2018-09-18T03:43:26.367Z,8.23
2018-09-18T03:46:04.044Z,6.53
2018-09-18T03:48:38.530Z,6.33
2018-09-18T03:51:12.127Z,7.00
2018-09-18T03:53:45.672Z,5.90
2018-09-18T03:56:19.191Z,6.37
2018-09-18T03:58:52.811Z,6.90
2018-09-18T04:01:26.487Z,7.13
2018-09-18T04:04:00.064Z,8.10
2018-09-18T04:06:33.681Z,7.60
2018-09-18T04:09:08.777Z,7.50
2018-09-18T04:14:22.212Z,6.87
2018-09-18T04:16:55.618Z,7.17
2018-09-18T04:19:29.277Z,7.70
2018-09-18T04:22:09.187Z,7.37
2018-09-18T04:24:49.123Z,7.20
2018-09-18T04:27:22.748Z,6.83
2018-09-18T04:29:56.139Z,7.60
2018-09-18T04:32:29.697Z,7.67
2018-09-18T04:35:09.722Z,10.23
2018-09-18T04:37:44.281Z,7.90
2018-09-18T04:40:17.757Z,7.83
2018-09-18T04:42:57.547Z,7.67
2018-09-18T04:45:37.409Z,7.33
2018-09-18T04:48:11.279Z,7.40
2018-09-18T04:50:46.000Z,6.90
2018-09-18T04:53:19.909Z,7.93
2018-09-18T04:55:53.519Z,7.63
2018-09-18T04:58:26.901Z,7.40
2018-09-18T05:01:06.952Z,7.00
2018-09-18T05:03:40.388Z,7.10
2018-09-18T05:06:17.167Z,7.73
2018-09-18T05:08:50.893Z,7.10
2018-09-18T05:11:24.541Z,7.60
2018-09-18T05:13:58.153Z,7.30
2018-09-18T05:16:38.191Z,7.13
2018-09-18T05:19:11.872Z,6.67
2018-09-18T05:21:45.804Z,7.33
2018-09-18T05:24:23.685Z,7.13
2018-09-18T05:26:57.556Z,6.80
2018-09-18T05:29:37.417Z,7.47
2018-09-18T05:32:11.122Z,7.07
2018-09-18T05:34:45.877Z,6.53
2018-09-18T05:37:25.813Z,6.63
2018-09-18T05:40:05.944Z,6.90
2018-09-18T05:42:45.730Z,6.43
2018-09-18T05:45:25.646Z,6.97
2018-09-18T05:47:59.241Z,6.47
2018-09-18T05:50:32.894Z,6.93
2018-09-18T05:53:07.797Z,7.47
2018-09-18T05:55:41.597Z,6.87
2018-09-18T05:58:15.153Z,6.70
2018-09-18T06:00:48.676Z,6.70
2018-09-18T06:03:22.123Z,7.00
2018-09-18T06:06:01.924Z,6.13
2018-09-18T06:08:36.219Z,6.50
2018-09-18T06:11:10.651Z,6.40
2018-09-18T06:13:50.434Z,6.30
2018-09-18T06:16:23.892Z,6.93
2018-09-18T06:18:57.471Z,6.57
2018-09-18T06:21:30.908Z,6.13
2018-09-18T06:24:04.519Z,6.57
2018-09-18T06:26:44.396Z,6.13
2018-09-18T06:29:24.339Z,6.90
2018-09-18T06:31:57.979Z,6.93
2018-09-18T06:34:31.525Z,6.03
2018-09-18T06:37:04.958Z,6.27
2018-09-18T06:41:14.384Z,5.87
2018-09-18T06:43:48.051Z,5.63
2018-09-18T06:46:22.512Z,6.10
2018-09-18T06:48:56.239Z,5.80
2018-09-18T06:51:35.901Z,5.67
2018-09-18T06:54:09.267Z,5.40
2018-09-18T06:56:43.091Z,5.90
2018-09-18T06:59:17.423Z,5.93
2018-09-18T07:01:51.025Z,5.40
2018-09-18T07:04:24.508Z,5.57
2018-09-18T07:07:04.696Z,5.10
2018-09-18T07:09:44.569Z,5.67
2018-09-18T07:12:17.980Z,5.13
2018-09-18T07:14:51.611Z,4.80
2018-09-18T07:17:31.549Z,5.20
2018-09-18T07:20:11.494Z,4.77
2018-09-18T07:22:45.910Z,4.33
2018-09-18T07:25:25.822Z,5.20
2018-09-18T07:27:59.440Z,4.80
2018-09-18T07:30:32.983Z,4.93
2018-09-18T07:33:06.534Z,4.27
2018-09-18T07:35:40.179Z,4.70
2018-09-18T07:38:20.137Z,4.70
2018-09-18T07:40:57.065Z,4.67
2018-09-18T07:43:30.514Z,4.33
2018-09-18T07:46:04.164Z,4.50
2018-09-18T07:48:38.556Z,4.03
2018-09-18T07:51:13.008Z,4.42
2018-09-18T07:53:52.797Z,4.30
2018-09-18T07:56:27.562Z,4.43
2018-09-18T07:59:01.573Z,4.55
2018-09-18T08:01:35.095Z,3.90
2018-09-18T08:04:08.824Z,4.00
2018-09-18T08:06:48.756Z,4.00
2018-09-18T08:09:28.592Z,4.35
2018-09-18T08:12:02.121Z,4.00
2018-09-18T08:14:42.024Z,4.30
2018-09-18T08:17:22.028Z,4.33
2018-09-18T08:19:57.009Z,4.00
2018-09-18T08:22:30.727Z,3.98
2018-09-18T08:25:04.709Z,4.80
2018-09-18T08:27:39.184Z,4.12
2018-09-18T08:30:12.726Z,4.35
2018-09-18T08:32:52.701Z,4.55
2018-09-18T08:35:32.631Z,4.30
2018-09-18T08:38:12.618Z,4.00
2018-09-18T08:40:46.205Z,4.03
2018-09-18T08:43:26.130Z,3.90
2018-09-18T08:45:59.729Z,4.10
2018-09-18T08:48:33.328Z,4.35
2018-09-18T08:51:06.897Z,4.42
2018-09-18T08:53:41.332Z,3.50
2018-09-18T08:56:21.369Z,3.67
2018-09-18T08:58:55.214Z,3.30
2018-09-18T09:01:29.722Z,3.45
2018-09-18T09:04:03.200Z,3.65
2018-09-18T09:06:36.928Z,3.40
2018-09-18T09:09:12.642Z,3.40
2018-09-18T09:11:47.182Z,3.37
2018-09-18T09:14:20.868Z,3.65
2018-09-18T09:16:54.543Z,3.27
2018-09-18T09:19:29.092Z,3.35
2018-09-18T09:22:02.791Z,3.35
2018-09-18T09:24:42.724Z,3.52
2018-09-18T09:27:17.155Z,3.02
2018-09-18T09:29:51.870Z,3.27
2018-09-18T09:32:32.095Z,2.95
2018-09-18T09:35:05.781Z,3.02
2018-09-18T09:37:39.635Z,3.27
2018-09-18T09:40:14.152Z,3.17
2018-09-18T09:42:47.666Z,3.02
2018-09-18T09:45:21.222Z,2.90
2018-09-18T09:47:54.835Z,3.05
2018-09-18T09:50:34.968Z,2.90
2018-09-18T09:53:14.928Z,3.33
2018-09-18T09:55:48.607Z,2.90
2018-09-18T09:58:22.075Z,3.20
2018-09-18T10:01:07.639Z,3.25
2018-09-18T10:03:47.448Z,3.37
2018-09-18T10:06:21.040Z,3.15
2018-09-18T10:08:54.769Z,2.95
2018-09-18T10:11:28.383Z,3.27
2018-09-18T10:14:02.076Z,2.75
2018-09-18T10:16:36.632Z,2.98
2018-09-18T10:19:16.559Z,3.05
2018-09-18T10:21:50.161Z,3.10
2018-09-18T10:24:23.948Z,3.17
2018-09-18T10:26:57.464Z,3.92
2018-09-18T10:29:30.803Z,3.20
2018-09-18T10:32:04.331Z,3.40
2018-09-18T10:34:44.364Z,3.10
2018-09-18T10:37:17.908Z,3.42
2018-09-18T10:39:51.439Z,3.00
2018-09-18T10:42:25.159Z,3.60
2018-09-18T10:44:58.785Z,3.52
2018-09-18T10:47:32.373Z,3.37
2018-09-18T10:50:06.274Z,3.45
2018-09-18T10:52:40.021Z,3.25
2018-09-18T10:55:13.569Z,3.50
2018-09-18T10:57:53.414Z,3.42
2018-09-18T11:00:33.309Z,3.95
2018-09-18T11:03:13.249Z,3.67
2018-09-18T11:05:46.908Z,3.98
2018-09-18T11:08:26.856Z,4.65
2018-09-18T11:11:00.400Z,3.90
2018-09-18T11:13:33.923Z,3.90
2018-09-18T11:16:14.001Z,3.90
2018-09-18T11:18:47.888Z,3.85
2018-09-18T11:21:22.349Z,4.17
2018-09-18T11:24:03.210Z,4.53
2018-09-18T11:26:38.206Z,3.92
2018-09-18T11:29:13.100Z,4.00
2018-09-18T11:31:47.907Z,4.00
2018-09-18T11:34:21.928Z,4.40
2018-09-18T11:37:02.068Z,4.60
2018-09-18T11:39:42.384Z,3.95
2018-09-18T11:42:16.274Z,4.22
2018-09-18T11:44:56.623Z,3.90
2018-09-18T11:47:36.913Z,4.10
2018-09-18T11:50:10.878Z,4.15
2018-09-18T11:52:45.634Z,4.65
2018-09-18T11:55:26.052Z,3.90
2018-09-18T11:57:59.983Z,4.35
2018-09-18T12:00:33.820Z,4.30
2018-09-18T12:03:07.726Z,3.92
2018-09-18T12:05:41.619Z,4.12
2018-09-18T12:08:15.456Z,3.98
2018-09-18T12:10:55.242Z,3.80
2018-09-18T12:13:29.275Z,3.90
2018-09-18T12:16:03.322Z,4.35
2018-09-18T12:18:43.780Z,4.03
2018-09-18T12:21:18.645Z,3.17
2018-09-18T12:26:32.850Z,3.40
2018-09-18T12:29:06.702Z,3.77
2018-09-18T12:31:40.747Z,3.10
2018-09-18T12:34:14.687Z,3.37
2018-09-18T12:36:48.590Z,3.35
2018-09-18T12:39:22.235Z,3.05
2018-09-18T12:41:56.345Z,3.20
2018-09-18T12:44:30.493Z,3.40
2018-09-18T12:47:04.210Z,3.10
2018-09-18T12:49:39.382Z,3.12
2018-09-18T12:52:13.918Z,3.02
2018-09-18T12:54:47.670Z,2.83
2018-09-18T12:57:28.007Z,2.70
2018-09-18T13:00:08.361Z,2.80
2018-09-18T13:02:48.447Z,2.55
2018-09-18T13:05:28.759Z,2.47
2018-09-18T13:08:08.635Z,2.47
2018-09-18T13:10:41.980Z,2.60
2018-09-18T13:13:17.611Z,2.77
2018-09-18T13:15:51.309Z,2.40
2018-09-18T13:18:24.827Z,2.25
2018-09-18T13:21:02.484Z,2.42
2018-09-18T13:23:36.985Z,2.60
2018-09-18T13:26:17.013Z,3.15
2018-09-18T13:28:50.713Z,2.52
2018-09-18T13:31:30.677Z,2.40
2018-09-18T13:34:04.305Z,2.85
2018-09-18T13:36:37.840Z,2.55
2018-09-18T13:39:17.544Z,2.62
2018-09-18T13:41:51.304Z,2.90
2018-09-18T13:44:24.918Z,2.40
2018-09-18T13:46:58.636Z,2.80
2018-09-18T13:49:32.162Z,2.67
2018-09-18T13:52:12.178Z,2.70
2018-09-18T13:54:45.851Z,2.30
2018-09-18T13:57:19.571Z,2.50
2018-09-18T13:59:59.501Z,2.40
2018-09-18T14:02:32.886Z,2.42
2018-09-18T14:05:07.510Z,2.98
2018-09-18T14:07:47.398Z,2.85
2018-09-18T14:10:27.381Z,2.70
2018-09-18T14:13:01.003Z,2.65
2018-09-18T14:15:34.743Z,2.70
2018-09-18T14:18:14.647Z,2.67
2018-09-18T14:20:48.341Z,3.20
2018-09-18T14:23:22.280Z,2.67
2018-09-18T14:26:02.197Z,2.77
2018-09-18T14:28:35.721Z,2.75
2018-09-18T14:31:09.263Z,2.67
2018-09-18T14:33:42.772Z,2.42
2018-09-18T14:36:16.225Z,2.80
2018-09-18T14:38:54.996Z,2.60
2018-09-18T14:41:29.707Z,2.20
2018-09-18T14:44:03.573Z,2.65
2018-09-18T14:46:37.030Z,2.80
2018-09-18T14:49:17.016Z,2.87
2018-09-18T14:51:56.835Z,2.92
2018-09-18T14:54:30.264Z,2.70
2018-09-18T14:57:10.232Z,2.90
2018-09-18T14:59:43.936Z,2.87
2018-09-18T15:02:24.106Z,2.77
2018-09-18T15:04:58.103Z,2.50
2018-09-18T15:07:37.932Z,2.87
2018-09-18T15:10:18.064Z,2.37
2018-09-18T15:12:51.725Z,2.83
2018-09-18T15:15:31.572Z,2.80
2018-09-18T15:18:11.551Z,2.50
2018-09-18T15:20:45.194Z,2.30
2018-09-18T15:23:19.871Z,2.70
2018-09-18T15:25:53.483Z,2.37
2018-09-18T15:28:27.094Z,2.02
2018-09-18T15:31:07.165Z,2.40
2018-09-18T15:33:40.768Z,2.37
2018-09-18T15:36:21.041Z,2.60
2018-09-18T15:38:55.865Z,2.37
2018-09-18T15:41:35.986Z,2.25
2018-09-18T15:44:09.761Z,2.17
2018-09-18T15:46:43.520Z,2.52
2018-09-18T15:49:23.319Z,2.50
2018-09-18T15:52:03.306Z,2.58
2018-09-18T15:54:36.987Z,3.58
2018-09-18T15:57:10.510Z,2.80
2018-09-18T15:59:45.179Z,2.77
2018-09-18T16:02:18.858Z,2.98
2018-09-18T16:04:53.448Z,3.27
2018-09-18T16:07:33.409Z,3.10
2018-09-18T16:10:13.573Z,5.20
2018-09-18T16:12:47.485Z,6.35
2018-09-18T16:15:21.301Z,5.95
2018-09-18T16:18:01.141Z,2.72
2018-09-18T16:20:41.013Z,4.45
2018-09-18T16:23:20.823Z,3.02
2018-09-18T16:25:54.479Z,2.65
2018-09-18T16:28:28.089Z,2.67
2018-09-18T16:31:01.772Z,2.33
2018-09-18T16:33:35.292Z,2.08
2018-09-18T16:36:08.862Z,2.80
2018-09-18T16:41:22.596Z,2.42
2018-09-18T16:43:56.354Z,2.67
2018-09-18T16:46:36.167Z,2.60
2018-09-18T16:49:10.584Z,2.75
2018-09-18T16:51:50.782Z,2.65
2018-09-18T16:54:30.762Z,2.27
2018-09-18T16:57:04.313Z,2.65
2018-09-18T16:59:37.777Z,2.40
2018-09-18T17:02:11.396Z,2.80
2018-09-18T17:04:51.332Z,2.90
2018-09-18T17:07:31.354Z,2.87
2018-09-18T17:10:11.325Z,2.80
2018-09-18T17:12:44.875Z,3.00
2018-09-18T17:15:24.817Z,3.05
2018-09-18T17:17:59.311Z,3.27
2018-09-18T17:20:32.798Z,2.90
2018-09-18T17:23:12.717Z,3.37
2018-09-18T17:25:46.399Z,3.50
2018-09-18T17:28:20.141Z,3.22
2018-09-18T17:30:53.634Z,2.98
2018-09-18T17:33:33.561Z,2.72
2018-09-18T17:36:13.485Z,3.08
2018-09-18T17:38:47.004Z,3.22
2018-09-18T17:41:21.676Z,3.60
2018-09-18T17:43:55.030Z,3.75
2018-09-18T17:46:34.781Z,3.37
2018-09-18T17:49:14.604Z,3.30
2018-09-18T17:51:54.416Z,3.50
2018-09-18T17:54:27.928Z,3.58
2018-09-18T17:57:07.742Z,3.87
2018-09-18T17:59:41.556Z,4.12
2018-09-18T18:02:14.884Z,3.77
2018-09-18T18:04:48.453Z,4.40
2018-09-18T18:07:22.184Z,3.65
2018-09-18T18:10:02.144Z,3.92
2018-09-18T18:13:45.645Z,4.03
2018-09-18T18:16:25.519Z,4.62
2018-09-18T18:18:59.343Z,4.62
2018-09-18T18:21:39.809Z,4.42
2018-09-18T18:24:14.783Z,4.40
2018-09-18T18:26:54.793Z,4.42
2018-09-18T18:29:34.754Z,4.45
2018-09-18T18:32:14.695Z,4.03
2018-09-18T18:34:54.795Z,4.25
2018-09-18T18:37:29.194Z,4.53
2018-09-18T18:40:02.920Z,4.70
2018-09-18T18:42:36.444Z,3.98
2018-09-18T18:45:15.155Z,3.95
2018-09-18T18:47:48.759Z,4.35
2018-09-18T18:50:28.649Z,4.42
2018-09-18T18:53:02.235Z,4.40
2018-09-18T18:55:42.153Z,4.60
2018-09-18T18:58:22.130Z,4.45
2018-09-18T19:00:56.381Z,4.53
2018-09-18T19:03:30.818Z,4.53
2018-09-18T19:06:10.864Z,4.22
2018-09-18T19:08:44.359Z,3.95
2018-09-18T19:11:24.088Z,4.20
2018-09-18T19:13:57.484Z,4.33
2018-09-18T19:16:31.336Z,4.00
2018-09-18T19:19:04.925Z,3.62
2018-09-18T19:21:41.563Z,3.87
2018-09-18T19:24:15.195Z,3.98
2018-09-18T19:26:54.956Z,4.10
2018-09-18T19:29:28.688Z,4.00
2018-09-18T19:32:02.303Z,4.80
2018-09-18T19:34:36.731Z,4.53
2018-09-18T19:37:10.260Z,4.92
2018-09-18T19:39:50.196Z,4.47
2018-09-18T19:42:23.778Z,4.08
2018-09-18T19:44:57.381Z,4.67
2018-09-18T19:47:31.190Z,4.17
2018-09-18T19:50:09.388Z,3.95
2018-09-18T19:52:43.911Z,4.30
2018-09-18T19:55:23.669Z,3.77
2018-09-18T19:57:57.037Z,4.80
2018-09-18T20:00:30.606Z,4.25
2018-09-18T20:03:04.227Z,3.72
2018-09-18T20:05:37.835Z,4.17
2018-09-18T20:08:17.774Z,3.95
2018-09-18T20:10:51.383Z,4.12
2018-09-18T20:13:31.820Z,4.35
2018-09-18T20:16:05.655Z,4.35
2018-09-18T20:18:39.349Z,3.98
2018-09-18T20:21:12.807Z,5.30
2018-09-18T20:23:47.295Z,4.50
2018-09-18T20:26:20.844Z,4.37
2018-09-18T20:29:00.921Z,4.45
2018-09-18T20:31:34.554Z,4.10
2018-09-18T20:34:08.092Z,5.20
2018-09-18T20:36:48.077Z,5.17
2018-09-18T20:39:27.922Z,4.67
2018-09-18T20:42:01.557Z,5.35
2018-09-18T20:44:35.132Z,4.55
2018-09-18T20:47:15.063Z,3.85
2018-09-18T20:49:48.781Z,5.03
2018-09-18T20:52:28.706Z,4.17
2018-09-18T20:55:02.261Z,4.60
2018-09-18T20:57:35.839Z,3.67
2018-09-18T21:00:15.911Z,4.37
2018-09-18T21:04:14.144Z,4.03
2018-09-18T21:06:54.203Z,4.10
2018-09-18T21:09:34.258Z,4.00
2018-09-18T21:12:07.706Z,4.65
2018-09-18T21:14:47.741Z,4.97
2018-09-18T21:17:21.303Z,4.60
2018-09-18T21:19:54.727Z,5.28
2018-09-18T21:22:28.197Z,4.53
2018-09-18T21:25:09.599Z,4.65
2018-09-18T21:27:44.405Z,4.62
2018-09-18T21:30:17.826Z,4.25
2018-09-18T21:32:51.235Z,4.53
2018-09-18T21:35:25.693Z,5.60
2018-09-18T21:37:59.050Z,5.50
2018-09-18T21:40:39.026Z,5.25
2018-09-18T21:43:12.665Z,5.17
2018-09-18T21:45:52.634Z,5.35
2018-09-18T21:48:32.427Z,4.17
2018-09-18T21:51:05.859Z,5.20
2018-09-18T21:53:39.475Z,4.15
2018-09-18T21:56:13.083Z,5.50
2018-09-18T21:58:47.857Z,4.85
2018-09-18T22:01:21.577Z,4.50
2018-09-18T22:03:55.067Z,5.08
2018-09-18T22:06:32.780Z,4.78
2018-09-18T22:09:12.683Z,4.80
2018-09-18T22:11:46.284Z,4.65
2018-09-18T22:14:20.741Z,4.65
2018-09-18T22:16:54.394Z,4.85
2018-09-18T22:22:12.393Z,3.87
2018-09-18T22:24:45.885Z,3.70
2018-09-18T22:27:19.384Z,3.72
2018-09-18T22:29:52.828Z,3.58
2018-09-18T22:32:26.405Z,3.58
2018-09-18T22:35:00.015Z,3.37
2018-09-18T22:37:33.480Z,4.10
2018-09-18T22:40:07.173Z,4.30
2018-09-18T22:42:40.877Z,3.98
2018-09-18T22:45:14.435Z,3.55
2018-09-18T22:47:48.163Z,4.03
2018-09-18T22:50:28.061Z,3.47
2018-09-18T22:53:01.492Z,3.52
2018-09-18T22:55:35.189Z,3.90
2018-09-18T22:58:08.676Z,3.77
2018-09-18T23:00:42.278Z,3.47
2018-09-18T23:03:15.887Z,3.35
2018-09-18T23:05:55.719Z,3.55
2018-09-18T23:08:29.379Z,4.45
2018-09-18T23:11:02.967Z,3.63
2018-09-18T23:15:06.111Z,3.72
2018-09-18T23:17:39.479Z,3.60
2018-09-18T23:20:13.118Z,4.08
2018-09-18T23:22:53.062Z,3.62
2018-09-18T23:25:26.640Z,4.53
2018-09-18T23:28:00.053Z,4.07
2018-09-18T23:30:33.705Z,3.70
2018-09-18T23:33:07.224Z,3.60
2018-09-18T23:35:41.487Z,3.60
2018-09-18T23:38:15.149Z,3.50
2018-09-18T23:40:48.510Z,4.35
2018-09-18T23:43:28.364Z,3.87
2018-09-18T23:46:01.871Z,4.10
2018-09-18T23:48:35.475Z,2.98
2018-09-18T23:51:09.080Z,3.98
2018-09-18T23:53:42.569Z,3.67
2018-09-18T23:56:16.179Z,3.57
2018-09-18T23:58:49.657Z,4.07
